Time;durP1;ratioP1;P1;durP2;ratioP2;P2;SDS_P1;SDS_P2;PMS_P1;PMS_P2;Temp;Humidity;BMP_temperature;BMP_pressure;BME280_temperature;BME280_humidity;BME280_pressure;Samples;Min_cycle;Max_cycle;Signal;HPM_P1;HPM_P2
2021/10/30 00:00:23;;;;;;;32.67;23.23;;;6.60;99.90;;;;;;5111455;28;20082;-72
2021/10/30 00:02:50;;;;;;;33.87;20.87;;;6.60;99.90;;;;;;5111875;28;20073;-74
2021/10/30 00:05:17;;;;;;;30.00;19.80;;;6.60;99.90;;;;;;5111090;28;20554;-75
2021/10/30 00:07:44;;;;;;;29.13;19.30;;;6.60;99.90;;;;;;5111610;28;20075;-74
2021/10/30 00:10:12;;;;;;;27.10;19.73;;;6.70;99.90;;;;;;5111531;28;20075;-74
2021/10/30 00:12:38;;;;;;;26.97;18.03;;;6.70;99.90;;;;;;5111494;28;20043;-74
2021/10/30 00:15:06;;;;;;;32.77;20.70;;;6.80;99.90;;;;;;5110930;28;20460;-75
2021/10/30 00:17:34;;;;;;;28.87;20.53;;;6.70;99.90;;;;;;5111895;28;20112;-73
2021/10/30 00:20:01;;;;;;;26.10;17.50;;;6.60;99.90;;;;;;5111574;28;20097;-74
2021/10/30 00:22:29;;;;;;;27.07;20.43;;;6.40;99.90;;;;;;5111626;28;20051;-73
2021/10/30 00:24:56;;;;;;;36.47;21.70;;;6.50;99.90;;;;;;5111518;28;20093;-73
2021/10/30 00:27:22;;;;;;;27.37;19.20;;;6.50;99.90;;;;;;5114979;28;20097;-74
2021/10/30 00:29:49;;;;;;;29.70;19.30;;;6.30;99.90;;;;;;5115008;28;20451;-73
2021/10/30 00:32:16;;;;;;;23.57;18.20;;;6.20;99.90;;;;;;5115121;28;20067;-73
2021/10/30 00:34:43;;;;;;;32.37;18.77;;;6.10;99.90;;;;;;5114472;28;20083;-73
2021/10/30 00:37:10;;;;;;;28.53;19.53;;;5.90;99.90;;;;;;5114873;28;20075;-72
2021/10/30 00:39:38;;;;;;;29.03;18.60;;;5.70;99.90;;;;;;5114806;28;20072;-73
2021/10/30 00:42:05;;;;;;;33.27;21.70;;;5.70;99.90;;;;;;5114887;28;20070;-73
2021/10/30 00:44:32;;;;;;;28.87;19.27;;;5.80;99.90;;;;;;5114541;28;20414;-74
2021/10/30 00:46:59;;;;;;;25.47;19.13;;;5.80;99.90;;;;;;5114730;28;20071;-74
2021/10/30 00:49:28;;;;;;;32.80;21.77;;;5.80;99.90;;;;;;5114516;28;20044;-75
2021/10/30 00:51:57;;;;;;;30.63;19.53;;;5.70;99.90;;;;;;5114622;28;20050;-74
2021/10/30 00:54:25;;;;;;;32.43;20.53;;;5.70;99.90;;;;;;5114030;28;20071;-73
2021/10/30 00:56:54;;;;;;;37.27;19.63;;;5.60;99.90;;;;;;5114701;28;20087;-74
2021/10/30 00:59:22;;;;;;;27.13;18.93;;;5.70;99.90;;;;;;5114595;28;20133;-76
2021/10/30 01:01:51;;;;;;;32.63;20.40;;;5.90;99.90;;;;;;5114552;28;20499;-74
2021/10/30 01:04:18;;;;;;;26.37;18.63;;;6.00;99.90;;;;;;5114058;27;20089;-75
2021/10/30 01:06:47;;;;;;;31.60;19.57;;;6.00;99.90;;;;;;5114394;28;20043;-73
2021/10/30 01:09:15;;;;;;;29.87;19.13;;;5.90;99.90;;;;;;5114150;28;20106;-74
2021/10/30 01:11:42;;;;;;;28.70;19.13;;;5.90;99.90;;;;;;5114466;28;20071;-74
2021/10/30 01:14:09;;;;;;;28.53;19.57;;;5.70;99.90;;;;;;5113836;28;20089;-75
2021/10/30 01:16:36;;;;;;;29.83;19.47;;;5.70;99.90;;;;;;5114104;28;20464;-74
2021/10/30 01:19:03;;;;;;;24.30;18.67;;;5.60;99.90;;;;;;5113989;28;20047;-75
2021/10/30 01:21:32;;;;;;;24.50;16.53;;;5.90;99.90;;;;;;5114340;28;20044;-73
2021/10/30 01:23:59;;;;;;;28.27;19.20;;;6.10;99.90;;;;;;5114333;28;20064;-74
2021/10/30 01:26:26;;;;;;;28.07;19.07;;;6.10;99.90;;;;;;5114458;28;20469;-72
2021/10/30 01:28:53;;;;;;;27.03;19.10;;;6.00;99.90;;;;;;5114595;28;20047;-73
2021/10/30 01:31:21;;;;;;;26.13;18.50;;;5.80;99.90;;;;;;5114318;28;20100;-74
2021/10/30 01:33:49;;;;;;;27.60;18.87;;;5.70;99.90;;;;;;5113671;27;20105;-73
2021/10/30 01:36:19;;;;;;;25.37;19.27;;;5.70;99.90;;;;;;5113955;28;20552;-75
2021/10/30 01:38:47;;;;;;;31.30;17.53;;;5.80;99.90;;;;;;5114345;28;20071;-73
2021/10/30 01:41:15;;;;;;;26.53;19.67;;;5.80;99.90;;;;;;5114060;28;20044;-73
2021/10/30 01:43:41;;;;;;;28.87;18.23;;;5.70;99.90;;;;;;5113162;28;20461;-73
2021/10/30 01:46:08;;;;;;;35.33;19.00;;;5.80;99.90;;;;;;5113996;28;20487;-73
2021/10/30 01:48:36;;;;;;;27.40;19.53;;;5.90;99.90;;;;;;5113855;28;20062;-73
2021/10/30 01:51:08;;;;;;;24.67;18.30;;;5.90;99.90;;;;;;5114283;28;20124;-72
2021/10/30 01:53:35;;;;;;;30.33;20.58;;;5.80;99.90;;;;;;5112051;28;20077;-74
2021/10/30 01:56:04;;;;;;;27.67;19.13;;;5.70;99.90;;;;;;5113209;28;20404;-73
2021/10/30 01:58:31;;;;;;;22.87;17.87;;;5.60;99.90;;;;;;5113196;28;20044;-72
2021/10/30 02:00:59;;;;;;;24.70;19.13;;;5.40;99.90;;;;;;5113308;28;20048;-72
2021/10/30 02:03:29;;;;;;;27.87;17.90;;;5.30;99.90;;;;;;5112603;28;20513;-71
2021/10/30 02:05:56;;;;;;;29.03;19.60;;;5.30;99.90;;;;;;5113289;28;20043;-72
2021/10/30 02:08:22;;;;;;;31.23;19.20;;;5.30;99.90;;;;;;5113035;27;20406;-73
2021/10/30 02:10:49;;;;;;;28.00;18.13;;;5.30;99.90;;;;;;5113119;28;20505;-71
2021/10/30 02:13:19;;;;;;;27.37;18.33;;;5.20;99.90;;;;;;5112475;28;20078;-71
2021/10/30 02:15:46;;;;;;;29.37;20.50;;;5.10;99.90;;;;;;5112945;28;20051;-71
2021/10/30 02:18:13;;;;;;;29.23;18.83;;;5.00;99.90;;;;;;5113090;28;20083;-71
2021/10/30 02:20:40;;;;;;;26.60;18.10;;;4.90;99.90;;;;;;5112914;28;20050;-71
2021/10/30 02:23:07;;;;;;;28.73;19.07;;;4.80;99.90;;;;;;5112757;28;20479;-72
2021/10/30 02:25:33;;;;;;;30.43;18.70;;;4.80;99.90;;;;;;5112808;28;20044;-72
2021/10/30 02:28:00;;;;;;;28.80;18.83;;;4.80;99.90;;;;;;5112965;28;20075;-73
2021/10/30 02:30:28;;;;;;;25.47;20.27;;;4.90;99.90;;;;;;5111075;28;20044;-72
2021/10/30 02:32:54;;;;;;;26.43;18.53;;;5.10;99.90;;;;;;5112840;28;20070;-72
2021/10/30 02:35:21;;;;;;;29.87;18.50;;;5.30;99.90;;;;;;5112268;28;20077;-73
2021/10/30 02:37:48;;;;;;;28.90;19.67;;;5.20;99.90;;;;;;5113006;28;20090;-73
2021/10/30 02:40:14;;;;;;;26.53;19.63;;;5.10;99.90;;;;;;5112509;28;20089;-72
2021/10/30 02:42:41;;;;;;;30.67;19.43;;;5.00;99.90;;;;;;5112657;28;20299;-73
2021/10/30 02:45:09;;;;;;;30.30;19.40;;;5.10;99.90;;;;;;5112152;28;20063;-73
2021/10/30 02:47:37;;;;;;;27.77;19.10;;;5.10;99.90;;;;;;5112241;28;20043;-73
2021/10/30 02:50:03;;;;;;;24.00;17.17;;;5.10;99.90;;;;;;5112494;28;20082;-73
2021/10/30 02:52:30;;;;;;;24.13;17.63;;;5.00;99.90;;;;;;5112389;28;20085;-72
2021/10/30 02:54:56;;;;;;;28.73;21.23;;;4.90;99.90;;;;;;5111685;28;20495;-72
2021/10/30 02:57:23;;;;;;;35.90;20.57;;;4.90;99.90;;;;;;5112294;28;20200;-72
2021/10/30 02:59:50;;;;;;;28.87;20.00;;;4.80;99.90;;;;;;5112206;28;20075;-72
2021/10/30 03:02:16;;;;;;;27.53;17.60;;;4.70;99.90;;;;;;5112781;28;20043;-73
2021/10/30 03:04:44;;;;;;;28.63;18.93;;;4.70;99.90;;;;;;5111882;28;20083;-73
2021/10/30 03:07:11;;;;;;;23.43;17.97;;;4.60;99.90;;;;;;5112270;28;20070;-73
2021/10/30 03:09:38;;;;;;;28.83;17.83;;;4.60;99.90;;;;;;5112078;28;20092;-73
2021/10/30 03:12:05;;;;;;;31.47;19.20;;;4.50;99.90;;;;;;5112095;28;20090;-73
2021/10/30 03:14:31;;;;;;;27.23;17.90;;;4.50;99.90;;;;;;5111714;28;20094;-73
2021/10/30 03:16:58;;;;;;;29.80;19.07;;;4.40;99.90;;;;;;5111980;28;20471;-73
2021/10/30 03:19:24;;;;;;;31.23;19.20;;;4.30;99.90;;;;;;5112192;28;20079;-73
2021/10/30 03:21:52;;;;;;;26.87;18.30;;;4.30;99.90;;;;;;5111944;28;20075;-74
2021/10/30 03:24:19;;;;;;;26.80;18.17;;;4.20;99.90;;;;;;5111857;28;20062;-73
2021/10/30 03:26:46;;;;;;;27.60;19.83;;;4.20;99.90;;;;;;5112281;28;20048;-73
2021/10/30 03:29:12;;;;;;;25.63;18.40;;;4.20;99.90;;;;;;5112480;28;20043;-74
2021/10/30 03:31:39;;;;;;;25.60;18.43;;;4.10;99.90;;;;;;5112310;28;20087;-73
2021/10/30 03:34:05;;;;;;;27.67;20.03;;;4.10;99.90;;;;;;5111838;28;20043;-72
2021/10/30 03:36:32;;;;;;;33.93;21.03;;;4.10;99.90;;;;;;5111976;28;20039;-72
2021/10/30 03:39:00;;;;;;;27.17;19.07;;;4.10;99.90;;;;;;5111716;28;20509;-72
2021/10/30 03:41:27;;;;;;;30.03;19.60;;;4.10;99.90;;;;;;5112094;28;20108;-73
2021/10/30 03:43:54;;;;;;;29.10;18.77;;;4.10;99.90;;;;;;5111225;28;20495;-72
2021/10/30 03:46:21;;;;;;;30.27;20.03;;;4.00;99.90;;;;;;5111830;28;20549;-72
2021/10/30 03:48:47;;;;;;;30.17;20.73;;;4.00;99.90;;;;;;5111908;28;20081;-73
2021/10/30 03:51:14;;;;;;;31.40;19.53;;;4.00;99.90;;;;;;5111735;28;20089;-72
2021/10/30 03:53:41;;;;;;;27.73;19.53;;;4.10;99.90;;;;;;5111176;28;20071;-72
2021/10/30 03:56:08;;;;;;;32.57;19.80;;;4.10;99.90;;;;;;5112067;28;20480;-72
2021/10/30 03:58:35;;;;;;;31.40;19.33;;;4.20;99.90;;;;;;5111862;28;20184;-72
2021/10/30 04:01:02;;;;;;;27.13;19.07;;;4.30;99.90;;;;;;5114223;28;20048;-73
2021/10/30 04:03:28;;;;;;;27.07;19.13;;;4.20;99.90;;;;;;5115224;28;20075;-74
2021/10/30 04:05:55;;;;;;;30.17;18.87;;;4.20;99.90;;;;;;5115519;27;20077;-74
2021/10/30 04:08:22;;;;;;;32.73;19.63;;;4.20;99.90;;;;;;5115445;28;20078;-72
2021/10/30 04:10:48;;;;;;;27.63;18.30;;;4.20;99.90;;;;;;5115439;28;20058;-72
2021/10/30 04:13:17;;;;;;;31.10;19.70;;;4.20;99.90;;;;;;5115144;28;20113;-74
2021/10/30 04:15:43;;;;;;;25.63;18.43;;;4.20;99.90;;;;;;5115576;28;20112;-73
2021/10/30 04:18:10;;;;;;;27.90;19.77;;;4.30;99.90;;;;;;5115398;28;20047;-73
2021/10/30 04:20:36;;;;;;;25.87;18.17;;;4.30;99.90;;;;;;5115065;28;20101;-73
2021/10/30 04:23:03;;;;;;;25.17;17.20;;;4.20;99.90;;;;;;5115280;28;20192;-71
2021/10/30 04:25:30;;;;;;;27.17;17.97;;;4.10;99.90;;;;;;5115121;28;20101;-73
2021/10/30 04:27:56;;;;;;;29.33;17.37;;;4.00;99.90;;;;;;5115306;28;20048;-73
2021/10/30 04:30:24;;;;;;;29.07;18.53;;;4.00;99.90;;;;;;5115064;27;20112;-73
2021/10/30 04:32:51;;;;;;;24.97;17.07;;;3.90;99.90;;;;;;5114914;28;20043;-74
2021/10/30 04:35:17;;;;;;;23.27;17.00;;;3.90;99.90;;;;;;5114422;28;20047;-73
2021/10/30 04:37:44;;;;;;;23.63;17.27;;;3.80;99.90;;;;;;5115088;28;20484;-72
2021/10/30 04:40:11;;;;;;;26.77;18.90;;;3.80;99.90;;;;;;5114864;28;20079;-72
2021/10/30 04:42:38;;;;;;;26.77;18.43;;;3.70;99.90;;;;;;5115027;27;20051;-72
2021/10/30 04:45:05;;;;;;;26.50;16.17;;;3.70;99.90;;;;;;5114453;28;20063;-73
2021/10/30 04:47:33;;;;;;;26.53;18.43;;;3.70;99.90;;;;;;5114752;28;20067;-73
2021/10/30 04:50:00;;;;;;;24.93;19.00;;;3.60;99.90;;;;;;5114492;28;20540;-73
2021/10/30 04:52:27;;;;;;;30.70;19.03;;;3.60;99.90;;;;;;5114737;28;20092;-73
2021/10/30 04:54:54;;;;;;;23.70;18.37;;;3.60;99.90;;;;;;5114291;28;20050;-73
2021/10/30 04:57:20;;;;;;;29.77;19.90;;;3.70;99.90;;;;;;5114670;28;20088;-74
2021/10/30 04:59:47;;;;;;;27.40;17.23;;;3.70;99.90;;;;;;5114391;28;20090;-73
2021/10/30 05:02:13;;;;;;;25.40;18.17;;;3.60;99.90;;;;;;5114536;28;20078;-72
2021/10/30 05:04:41;;;;;;;25.87;16.97;;;3.60;99.90;;;;;;5113927;28;20507;-72
2021/10/30 05:07:08;;;;;;;27.33;18.23;;;3.60;99.90;;;;;;5114197;28;20487;-73
2021/10/30 05:09:34;;;;;;;27.10;19.23;;;3.60;99.90;;;;;;5114344;28;20078;-72
2021/10/30 05:12:01;;;;;;;22.17;17.67;;;3.60;99.90;;;;;;5113928;28;20087;-73
2021/10/30 05:14:28;;;;;;;25.77;17.03;;;3.60;99.90;;;;;;5113790;28;20548;-73
2021/10/30 05:16:54;;;;;;;26.63;17.50;;;3.60;99.90;;;;;;5113942;28;20093;-74
2021/10/30 05:19:21;;;;;;;26.97;18.53;;;3.60;99.90;;;;;;5114181;28;20071;-73
2021/10/30 05:21:49;;;;;;;23.00;17.47;;;3.70;99.90;;;;;;5114238;28;20044;-74
2021/10/30 05:24:15;;;;;;;25.00;17.70;;;3.70;99.90;;;;;;5113574;28;20093;-73
2021/10/30 05:26:42;;;;;;;32.90;19.07;;;3.60;99.90;;;;;;5114133;27;20043;-73
2021/10/30 05:29:09;;;;;;;26.40;16.60;;;3.70;99.90;;;;;;5114060;28;20047;-73
2021/10/30 05:31:36;;;;;;;25.13;16.73;;;3.70;99.90;;;;;;5113755;28;20135;-73
2021/10/30 05:34:02;;;;;;;31.00;17.17;;;3.90;99.90;;;;;;5113354;27;20051;-73
2021/10/30 05:36:31;;;;;;;24.97;18.20;;;4.00;99.90;;;;;;5114071;28;20047;-73
2021/10/30 05:38:59;;;;;;;27.93;17.97;;;4.00;99.90;;;;;;5113731;28;20043;-74
2021/10/30 05:41:26;;;;;;;26.97;19.33;;;4.10;99.90;;;;;;5113792;28;20051;-72
2021/10/30 05:43:53;;;;;;;36.77;21.27;;;4.20;99.90;;;;;;5113066;28;20043;-75
2021/10/30 05:46:19;;;;;;;35.87;20.53;;;4.30;99.90;;;;;;5113524;28;20093;-75
2021/10/30 05:48:46;;;;;;;37.20;19.23;;;4.30;99.90;;;;;;5113687;28;20093;-72
2021/10/30 05:51:13;;;;;;;37.93;19.83;;;4.40;99.90;;;;;;5113450;28;20044;-74
2021/10/30 05:53:40;;;;;;;27.53;18.83;;;4.40;99.90;;;;;;5113072;28;20096;-74
2021/10/30 05:56:08;;;;;;;25.07;18.33;;;4.40;99.90;;;;;;5113532;28;20040;-73
2021/10/30 05:58:35;;;;;;;28.07;18.40;;;4.40;99.90;;;;;;5113234;28;20047;-73
2021/10/30 06:01:02;;;;;;;32.10;19.87;;;4.50;99.90;;;;;;5113369;28;20059;-72
2021/10/30 06:03:28;;;;;;;37.03;19.83;;;4.40;99.90;;;;;;5113538;28;20507;-72
2021/10/30 06:05:55;;;;;;;30.13;19.30;;;4.40;99.90;;;;;;5114297;28;20052;-72
2021/10/30 06:08:22;;;;;;;25.50;18.27;;;4.50;99.90;;;;;;5113323;28;20043;-74
2021/10/30 06:10:49;;;;;;;26.03;18.20;;;4.60;99.90;;;;;;5113204;28;20051;-76
2021/10/30 06:13:16;;;;;;;30.70;19.77;;;4.60;99.90;;;;;;5112428;28;20078;-74
2021/10/30 06:15:43;;;;;;;27.90;19.80;;;4.60;99.90;;;;;;5113310;28;20081;-73
2021/10/30 06:18:10;;;;;;;27.53;16.87;;;4.70;99.90;;;;;;5113017;28;20056;-74
2021/10/30 06:20:36;;;;;;;23.00;17.67;;;4.90;99.90;;;;;;5112896;28;20036;-73
2021/10/30 06:23:03;;;;;;;31.90;18.30;;;5.10;99.90;;;;;;5111895;28;20471;-73
2021/10/30 06:25:30;;;;;;;29.50;17.70;;;5.30;99.90;;;;;;5112463;28;20440;-72
2021/10/30 06:27:57;;;;;;;27.27;19.30;;;5.30;99.90;;;;;;5112834;28;20055;-73
2021/10/30 06:30:25;;;;;;;20.97;15.43;;;5.40;99.90;;;;;;5112595;28;20108;-72
2021/10/30 06:32:52;;;;;;;23.97;16.70;;;5.50;99.90;;;;;;5112780;28;20138;-73
2021/10/30 06:35:19;;;;;;;27.93;17.20;;;5.60;99.90;;;;;;5112526;28;20419;-74
2021/10/30 06:37:45;;;;;;;23.13;16.73;;;5.90;99.90;;;;;;5112822;28;20510;-72
2021/10/30 06:40:13;;;;;;;18.63;16.50;;;6.10;99.90;;;;;;5112518;28;20048;-72
2021/10/30 06:42:40;;;;;;;27.47;15.03;;;6.40;99.90;;;;;;5112768;28;20048;-73
2021/10/30 06:45:08;;;;;;;25.17;16.80;;;6.60;99.90;;;;;;5112253;28;20069;-72
2021/10/30 06:47:36;;;;;;;21.93;15.07;;;7.00;99.90;;;;;;5112682;28;20549;-74
2021/10/30 06:50:04;;;;;;;23.33;15.97;;;7.40;99.90;;;;;;5112461;28;20039;-74
2021/10/30 06:52:36;;;;;;;20.63;14.40;;;7.70;99.90;;;;;;5112405;28;20052;-73
2021/10/30 06:55:04;;;;;;;17.77;14.93;;;7.90;99.90;;;;;;5111684;28;20082;-73
2021/10/30 06:57:31;;;;;;;18.70;13.82;;;8.20;99.90;;;;;;5112320;28;20047;-73
2021/10/30 06:59:58;;;;;;;18.97;13.80;;;8.40;99.90;;;;;;5112193;28;20082;-73
2021/10/30 07:02:24;;;;;;;18.30;14.77;;;8.60;99.90;;;;;;5112275;28;20074;-73
2021/10/30 07:04:52;;;;;;;22.27;15.90;;;8.60;99.90;;;;;;5111682;28;20457;-73
2021/10/30 07:07:19;;;;;;;20.48;15.25;;;8.60;99.90;;;;;;5112161;28;20047;-72
2021/10/30 07:09:45;;;;;;;23.67;15.20;;;8.40;99.90;;;;;;5112245;28;20079;-73
2021/10/30 07:12:12;;;;;;;16.42;13.57;;;8.30;99.90;;;;;;5112318;28;20079;-74
2021/10/30 07:14:38;;;;;;;24.55;15.15;;;8.70;99.90;;;;;;5111728;28;20078;-73
2021/10/30 07:17:05;;;;;;;22.30;15.07;;;9.10;99.90;;;;;;5112168;28;20404;-73
2021/10/30 07:19:33;;;;;;;19.52;15.02;;;9.70;99.90;;;;;;5111828;28;20523;-72
2021/10/30 07:22:01;;;;;;;21.33;15.05;;;10.30;99.90;;;;;;5111938;28;20082;-73
2021/10/30 07:24:28;;;;;;;22.40;15.52;;;10.70;99.90;;;;;;5111473;28;20100;-74
2021/10/30 07:26:54;;;;;;;17.95;13.57;;;10.90;99.90;;;;;;5112121;28;20090;-73
2021/10/30 07:29:21;;;;;;;23.60;14.57;;;11.20;99.90;;;;;;5111793;28;20487;-74
2021/10/30 07:31:47;;;;;;;23.00;15.20;;;11.60;99.90;;;;;;5111800;28;20079;-74
2021/10/30 07:34:14;;;;;;;25.98;14.25;;;11.90;99.90;;;;;;5112888;28;20082;-71
2021/10/30 07:36:40;;;;;;;22.02;13.38;;;12.00;99.90;;;;;;5115989;28;20071;-72
2021/10/30 07:39:08;;;;;;;23.00;14.43;;;12.10;99.90;;;;;;5116280;28;20044;-73
2021/10/30 07:41:35;;;;;;;20.63;14.40;;;12.30;99.90;;;;;;5116809;28;20089;-72
2021/10/30 07:44:01;;;;;;;19.42;13.80;;;12.70;99.90;;;;;;5115651;28;20075;-72
2021/10/30 07:46:28;;;;;;;20.15;14.48;;;13.00;99.90;;;;;;5115902;28;20043;-72
2021/10/30 07:48:55;;;;;;;20.38;14.95;;;13.10;99.90;;;;;;5115802;28;20086;-72
2021/10/30 07:51:22;;;;;;;20.98;14.45;;;13.20;99.90;;;;;;5115725;28;20488;-73
2021/10/30 07:53:49;;;;;;;22.42;13.60;;;13.10;99.90;;;;;;5115463;28;20108;-71
2021/10/30 07:56:17;;;;;;;18.75;14.13;;;13.40;99.90;;;;;;5115918;28;20075;-71
2021/10/30 07:58:43;;;;;;;18.63;13.88;;;13.50;99.90;;;;;;5115768;28;20453;-72
2021/10/30 08:01:10;;;;;;;18.48;13.20;;;13.30;99.90;;;;;;5115579;28;20079;-71
2021/10/30 08:03:37;;;;;;;15.48;13.70;;;13.70;99.90;;;;;;5114989;28;20051;-72
2021/10/30 08:06:03;;;;;;;15.43;13.27;;;14.20;99.90;;;;;;5116007;28;20112;-73
2021/10/30 08:08:31;;;;;;;18.23;13.35;;;14.50;99.90;;;;;;5115508;28;20503;-72
2021/10/30 08:10:57;;;;;;;15.88;11.52;;;14.10;99.90;;;;;;5115659;28;20511;-72
2021/10/30 08:13:25;;;;;;;17.60;12.30;;;14.70;99.90;;;;;;5115000;28;20456;-72
2021/10/30 08:15:52;;;;;;;17.98;12.70;;;14.70;99.90;;;;;;5115574;28;20051;-72
2021/10/30 08:18:18;;;;;;;19.45;14.00;;;14.90;99.90;;;;;;5115278;28;20067;-72
2021/10/30 08:20:45;;;;;;;19.33;12.13;;;15.00;99.90;;;;;;5115312;28;20067;-75
2021/10/30 08:23:12;;;;;;;15.38;11.73;;;15.30;99.40;;;;;;5115035;27;20048;-73
2021/10/30 08:25:39;;;;;;;16.90;13.00;;;16.20;97.20;;;;;;5115208;28;20130;-74
2021/10/30 08:28:05;;;;;;;14.93;11.98;;;16.40;94.70;;;;;;5115243;28;20071;-73
2021/10/30 08:30:33;;;;;;;14.20;12.70;;;16.60;94.20;;;;;;5114970;28;20086;-72
2021/10/30 08:33:00;;;;;;;15.50;11.98;;;16.50;92.90;;;;;;5114751;28;20039;-73
2021/10/30 08:35:27;;;;;;;16.50;12.55;;;16.40;92.30;;;;;;5114715;28;20428;-71
2021/10/30 08:37:53;;;;;;;18.13;12.73;;;16.50;92.60;;;;;;5115184;28;20466;-73
2021/10/30 08:40:20;;;;;;;15.38;11.65;;;16.80;92.00;;;;;;5114876;28;20466;-72
2021/10/30 08:42:48;;;;;;;15.13;11.95;;;17.10;90.70;;;;;;5114775;28;20180;-72
2021/10/30 08:45:14;;;;;;;17.02;12.52;;;17.40;89.90;;;;;;5113614;28;20371;-74
2021/10/30 08:47:43;;;;;;;15.57;12.40;;;17.20;89.80;;;;;;5114580;28;20040;-72
2021/10/30 08:50:10;;;;;;;16.63;12.05;;;17.80;87.20;;;;;;5114782;28;20040;-72
2021/10/30 08:52:38;;;;;;;14.80;12.65;;;17.40;85.60;;;;;;5114979;27;20074;-72
2021/10/30 08:55:06;;;;;;;18.08;14.13;;;17.10;87.00;;;;;;5114147;28;20075;-72
2021/10/30 08:57:33;;;;;;;18.00;13.93;;;16.80;88.10;;;;;;5114590;28;20039;-72
2021/10/30 09:00:16;;;;;;;14.70;12.15;;;16.40;90.00;;;;;;5114165;28;20420;-74
2021/10/30 09:02:44;;;;;;;15.05;12.40;;;17.00;87.60;;;;;;5114638;28;20055;-75
2021/10/30 09:05:13;;;;;;;19.17;12.68;;;17.60;86.30;;;;;;5113873;28;20112;-74
2021/10/30 09:07:40;;;;;;;14.15;10.98;;;18.10;84.10;;;;;;5114397;28;20094;-75
2021/10/30 09:10:11;;;;;;;16.20;12.52;;;17.80;81.80;;;;;;5114118;28;20048;-74
2021/10/30 09:12:37;;;;;;;15.15;12.60;;;18.00;83.20;;;;;;5114519;28;20075;-74
2021/10/30 09:15:05;;;;;;;16.95;13.25;;;18.00;81.70;;;;;;5113794;28;20084;-72
2021/10/30 09:17:31;;;;;;;16.63;12.38;;;17.50;82.50;;;;;;5114194;27;20071;-73
2021/10/30 09:19:59;;;;;;;13.48;11.88;;;17.50;83.10;;;;;;5114473;28;20044;-73
2021/10/30 09:22:27;;;;;;;16.35;13.15;;;17.40;83.60;;;;;;5114036;28;20070;-71
2021/10/30 09:25:00;;;;;;;14.90;12.45;;;17.40;83.40;;;;;;5114036;28;20051;-71
2021/10/30 09:27:47;;;;;;;14.18;10.80;;;17.30;84.30;;;;;;5114177;28;20047;-70
2021/10/30 09:30:15;;;;;;;18.27;12.23;;;18.10;82.20;;;;;;5113712;28;20068;-72
2021/10/30 09:32:41;;;;;;;15.43;12.02;;;18.60;81.10;;;;;;5113734;28;20075;-71
2021/10/30 09:35:12;;;;;;;12.40;11.00;;;19.10;78.60;;;;;;5113299;28;20088;-72
2021/10/30 09:37:39;;;;;;;13.13;11.48;;;19.40;76.80;;;;;;5113753;28;20483;-72
2021/10/30 09:40:19;;;;;;;13.10;11.38;;;19.30;76.20;;;;;;5113474;28;20495;-72
2021/10/30 09:42:48;;;;;;;14.60;11.30;;;19.10;75.10;;;;;;5113761;28;20093;-72
2021/10/30 09:45:15;;;;;;;13.07;11.25;;;19.30;75.40;;;;;;5113250;28;20048;-71
2021/10/30 09:47:44;;;;;;;14.60;10.98;;;18.80;76.30;;;;;;5113687;28;20053;-72
2021/10/30 09:50:27;;;;;;;15.63;11.25;;;18.50;76.50;;;;;;5113711;28;20093;-73
2021/10/30 09:52:55;;;;;;;15.40;12.05;;;18.90;75.80;;;;;;5117614;28;20441;-72
2021/10/30 09:55:26;;;;;;;14.88;11.95;;;18.60;76.20;;;;;;5114033;28;20047;-71
2021/10/30 09:58:05;;;;;;;19.15;12.38;;;18.40;76.80;;;;;;5116433;28;20116;-72
2021/10/30 10:00:33;;;;;;;14.55;11.93;;;18.70;76.20;;;;;;5116853;28;20099;-72
2021/10/30 10:03:02;;;;;;;14.85;11.48;;;18.40;76.40;;;;;;5117204;27;20051;-73
2021/10/30 10:05:36;;;;;;;17.85;11.75;;;18.30;77.20;;;;;;5114723;28;20073;-72
2021/10/30 10:08:04;;;;;;;17.55;11.93;;;19.10;75.70;;;;;;5114236;28;20050;-71
2021/10/30 10:10:31;;;;;;;13.88;11.60;;;19.80;73.60;;;;;;5113038;28;20105;-71
2021/10/30 10:12:59;;;;;;;14.70;10.88;;;19.80;72.30;;;;;;5112827;28;20059;-73
2021/10/30 10:15:26;;;;;;;12.93;11.43;;;20.00;70.70;;;;;;5112860;28;20101;-73
2021/10/30 10:17:53;;;;;;;13.18;11.18;;;19.50;72.30;;;;;;5113191;27;20048;-72
2021/10/30 10:20:21;;;;;;;13.95;11.70;;;19.40;73.00;;;;;;5113205;28;20044;-72
2021/10/30 10:22:50;;;;;;;15.32;11.63;;;19.80;71.70;;;;;;5112981;27;20047;-72
2021/10/30 10:25:28;;;;;;;13.50;11.70;;;20.40;69.10;;;;;;5112261;27;20089;-72
2021/10/30 10:27:55;;;;;;;19.50;13.35;;;20.20;69.10;;;;;;5113010;28;20064;-71
2021/10/30 10:30:22;;;;;;;14.27;12.63;;;20.20;68.40;;;;;;5112733;28;20100;-72
2021/10/30 10:32:49;;;;;;;14.00;10.75;;;20.10;67.10;;;;;;5113012;28;20088;-71
2021/10/30 10:35:17;;;;;;;13.85;11.57;;;20.40;66.60;;;;;;5112298;28;20092;-71
2021/10/30 10:37:48;;;;;;;12.15;10.98;;;20.20;66.90;;;;;;5112549;28;20054;-72
2021/10/30 10:40:31;;;;;;;12.50;11.20;;;19.90;67.40;;;;;;5112774;28;20075;-73
2021/10/30 10:42:58;;;;;;;13.00;11.65;;;20.00;69.10;;;;;;5112675;28;20407;-75
2021/10/30 10:45:44;;;;;;;11.65;10.45;;;20.70;66.60;;;;;;5112020;28;20048;-72
2021/10/30 10:48:13;;;;;;;13.35;11.43;;;21.50;65.00;;;;;;5112343;28;20043;-72
2021/10/30 10:50:44;;;;;;;15.35;12.25;;;21.80;62.90;;;;;;5112302;28;20396;-73
2021/10/30 10:53:16;;;;;;;14.00;12.57;;;21.20;64.10;;;;;;5111976;28;20134;-72
2021/10/30 10:56:01;;;;;;;;;;;21.40;64.10;;;;;;5113067;28;20048;-71
2021/10/30 10:58:29;;;;;;;14.35;11.18;;;21.20;63.80;;;;;;5112106;28;19920;-72
2021/10/30 11:01:03;;;;;;;14.65;11.27;;;21.60;63.00;;;;;;5113341;28;20044;-72
2021/10/30 11:03:32;;;;;;;14.02;12.15;;;21.70;61.80;;;;;;5117355;28;20065;-73
2021/10/30 11:05:59;;;;;;;14.60;11.65;;;21.40;62.10;;;;;;5112560;28;20077;-72
2021/10/30 11:08:29;;;;;;;15.10;10.95;;;21.70;61.80;;;;;;5113012;28;20040;-72
2021/10/30 11:11:09;;;;;;;14.07;11.65;;;21.90;61.70;;;;;;5112337;28;20043;-72
2021/10/30 11:13:36;;;;;;;14.00;11.57;;;22.10;61.00;;;;;;5111698;28;20080;-72
2021/10/30 11:16:04;;;;;;;15.90;11.32;;;22.10;60.90;;;;;;5112381;28;20120;-72
2021/10/30 11:18:44;;;;;;;13.57;11.73;;;22.10;61.10;;;;;;5112272;28;20047;-73
2021/10/30 11:21:15;;;;;;;15.02;11.95;;;22.10;60.10;;;;;;5112249;28;20051;-71
2021/10/30 11:23:43;;;;;;;15.38;11.85;;;22.40;59.80;;;;;;5111600;28;20040;-73
2021/10/30 11:26:10;;;;;;;13.85;11.55;;;22.30;60.40;;;;;;5112508;28;20043;-73
2021/10/30 11:28:38;;;;;;;14.27;11.00;;;22.10;59.60;;;;;;5111882;28;20499;-75
2021/10/30 11:31:12;;;;;;;14.95;10.73;;;22.10;60.20;;;;;;5112075;28;20043;-74
2021/10/30 11:33:40;;;;;;;15.55;12.43;;;22.00;60.10;;;;;;5111352;28;20061;-71
2021/10/30 11:36:08;;;;;;;15.82;12.10;;;22.20;59.00;;;;;;5111959;28;20044;-73
2021/10/30 11:38:36;;;;;;;15.48;12.48;;;22.00;59.40;;;;;;5111763;28;20616;-74
2021/10/30 11:41:05;;;;;;;15.68;12.60;;;21.40;60.80;;;;;;5112090;28;20089;-72
2021/10/30 11:43:33;;;;;;;15.02;12.40;;;21.00;62.30;;;;;;5111294;28;20044;-72
2021/10/30 11:46:01;;;;;;;14.27;11.70;;;20.60;62.90;;;;;;5112186;28;20069;-71
2021/10/30 11:48:48;;;;;;;15.77;11.05;;;20.60;64.40;;;;;;5111839;28;20050;-71
2021/10/30 11:51:16;;;;;;;14.40;12.25;;;21.00;63.10;;;;;;5112023;28;20058;-72
2021/10/30 11:53:44;;;;;;;16.77;12.02;;;21.50;62.20;;;;;;5111006;28;20116;-72
2021/10/30 11:56:12;;;;;;;13.77;10.88;;;22.00;60.80;;;;;;5110879;28;20545;-73
2021/10/30 11:58:41;;;;;;;13.80;12.18;;;21.20;61.30;;;;;;5111335;28;20092;-72
2021/10/30 12:01:21;;;;;;;14.27;10.85;;;20.80;62.90;;;;;;5111485;28;20043;-74
2021/10/30 12:03:50;;;;;;;12.77;11.48;;;20.60;63.20;;;;;;5111410;28;20074;-73
2021/10/30 12:06:18;;;;;;;12.77;10.85;;;20.80;63.40;;;;;;5111873;28;20563;-73
2021/10/30 12:08:45;;;;;;;13.15;11.27;;;21.00;63.20;;;;;;5111580;28;20128;-72
2021/10/30 12:11:12;;;;;;;12.48;10.93;;;20.90;63.10;;;;;;5111594;28;20039;-74
2021/10/30 12:13:44;;;;;;;16.50;12.68;;;20.90;62.90;;;;;;5110954;28;20093;-72
2021/10/30 12:16:11;;;;;;;15.15;11.52;;;20.90;63.40;;;;;;5111989;28;20060;-74
2021/10/30 12:18:38;;;;;;;15.07;11.52;;;20.30;64.70;;;;;;5111759;28;20040;-74
2021/10/30 12:21:12;;;;;;;14.43;11.70;;;20.90;64.10;;;;;;5112672;28;20043;-73
2021/10/30 12:23:58;;;;;;;13.43;11.88;;;20.70;65.50;;;;;;5115034;28;20051;-72
2021/10/30 12:26:29;;;;;;;13.20;11.18;;;21.60;63.00;;;;;;5115709;28;20044;-72
2021/10/30 12:29:12;;;;;;;13.27;10.25;;;21.10;62.40;;;;;;5115086;28;20492;-73
2021/10/30 12:31:39;;;;;;;14.00;10.85;;;20.30;64.50;;;;;;5115810;28;20044;-71
2021/10/30 12:34:12;;;;;;;13.07;10.88;;;20.80;64.10;;;;;;5115117;28;20047;-73
2021/10/30 12:36:41;;;;;;;12.77;11.25;;;21.30;62.60;;;;;;5115031;28;20044;-72